sensor_id;sensor_type;location;lat;lon;timestamp;pressure;altitude;pressure_sealevel;temperature;humidity
9139;BME280;4604;48.616;9.548;2023-06-04T00:00:02;96836.78;;;16.45;53.26
9139;BME280;4604;48.616;9.548;2023-06-04T00:02:30;96839.38;;;16.39;53.55
9139;BME280;4604;48.616;9.548;2023-06-04T00:04:57;96831.13;;;16.25;53.55
9139;BME280;4604;48.616;9.548;2023-06-04T00:07:25;96835.47;;;16.26;53.61
9139;BME280;4604;48.616;9.548;2023-06-04T00:09:52;96844.28;;;16.27;53.92
9139;BME280;4604;48.616;9.548;2023-06-04T00:12:19;96840.94;;;16.25;53.72
9139;BME280;4604;48.616;9.548;2023-06-04T00:14:45;96838.28;;;16.25;53.69
9139;BME280;4604;48.616;9.548;2023-06-04T00:17:12;96838.28;;;16.25;53.31
9139;BME280;4604;48.616;9.548;2023-06-04T00:19:39;96832.22;;;16.31;52.78
9139;BME280;4604;48.616;9.548;2023-06-04T00:22:06;96824.03;;;16.18;51.50
9139;BME280;4604;48.616;9.548;2023-06-04T00:24:34;96834.84;;;16.16;50.99
9139;BME280;4604;48.616;9.548;2023-06-04T00:27:01;96839.03;;;16.34;50.04
9139;BME280;4604;48.616;9.548;2023-06-04T00:29:28;96836.38;;;16.34;50.22
9139;BME280;4604;48.616;9.548;2023-06-04T00:31:54;96839.25;;;16.32;50.90
9139;BME280;4604;48.616;9.548;2023-06-04T00:34:21;96832.78;;;16.26;50.79
9139;BME280;4604;48.616;9.548;2023-06-04T00:36:47;96830.28;;;16.25;50.89
9139;BME280;4604;48.616;9.548;2023-06-04T00:39:14;96841.41;;;16.29;50.06
9139;BME280;4604;48.616;9.548;2023-06-04T00:41:42;96834.72;;;16.33;49.51
9139;BME280;4604;48.616;9.548;2023-06-04T00:44:09;96839.38;;;16.39;48.69
9139;BME280;4604;48.616;9.548;2023-06-04T00:46:37;96843.66;;;16.40;48.22
9139;BME280;4604;48.616;9.548;2023-06-04T00:49:04;96847.66;;;16.44;48.61
9139;BME280;4604;48.616;9.548;2023-06-04T00:51:31;96852.69;;;16.39;48.77
9139;BME280;4604;48.616;9.548;2023-06-04T00:53:59;96844.13;;;16.43;48.64
9139;BME280;4604;48.616;9.548;2023-06-04T00:56:26;96853.31;;;16.41;47.60
9139;BME280;4604;48.616;9.548;2023-06-04T00:58:54;96848.22;;;16.54;47.39
9139;BME280;4604;48.616;9.548;2023-06-04T01:01:29;96847.03;;;16.34;48.12
9139;BME280;4604;48.616;9.548;2023-06-04T01:04:01;96849.09;;;16.23;48.64
9139;BME280;4604;48.616;9.548;2023-06-04T01:06:33;96842.81;;;16.16;49.24
9139;BME280;4604;48.616;9.548;2023-06-04T01:09:02;96848.13;;;16.24;49.21
9139;BME280;4604;48.616;9.548;2023-06-04T01:11:31;96852.41;;;16.25;49.02
9139;BME280;4604;48.616;9.548;2023-06-04T01:13:59;96853.66;;;16.15;48.84
9139;BME280;4604;48.616;9.548;2023-06-04T01:16:27;96848.94;;;15.94;49.42
9139;BME280;4604;48.616;9.548;2023-06-04T01:18:57;96855.09;;;15.94;48.95
9139;BME280;4604;48.616;9.548;2023-06-04T01:21:26;96853.81;;;15.90;49.48
9139;BME280;4604;48.616;9.548;2023-06-04T01:23:58;96854.19;;;16.10;47.71
9139;BME280;4604;48.616;9.548;2023-06-04T01:26:30;96856.94;;;16.25;47.38
9139;BME280;4604;48.616;9.548;2023-06-04T01:28:58;96850.75;;;16.01;48.18
9139;BME280;4604;48.616;9.548;2023-06-04T01:31:26;96839.13;;;15.94;47.00
9139;BME280;4604;48.616;9.548;2023-06-04T01:33:58;96858.41;;;15.96;46.57
9139;BME280;4604;48.616;9.548;2023-06-04T01:36:25;96856.63;;;16.20;46.86
9139;BME280;4604;48.616;9.548;2023-06-04T01:38:52;96861.59;;;16.23;47.07
9139;BME280;4604;48.616;9.548;2023-06-04T01:41:18;96856.63;;;16.20;46.81
9139;BME280;4604;48.616;9.548;2023-06-04T01:43:45;96856.78;;;15.95;47.61
9139;BME280;4604;48.616;9.548;2023-06-04T01:46:11;96857.00;;;15.77;48.50
9139;BME280;4604;48.616;9.548;2023-06-04T01:48:39;96846.91;;;15.73;49.26
9139;BME280;4604;48.616;9.548;2023-06-04T01:51:06;96856.22;;;15.60;49.54
9139;BME280;4604;48.616;9.548;2023-06-04T01:53:33;96851.44;;;15.56;49.64
9139;BME280;4604;48.616;9.548;2023-06-04T01:56:00;96850.78;;;15.46;50.79
9139;BME280;4604;48.616;9.548;2023-06-04T01:58:27;96852.66;;;15.37;50.08
9139;BME280;4604;48.616;9.548;2023-06-04T02:00:54;96853.63;;;15.44;51.28
9139;BME280;4604;48.616;9.548;2023-06-04T02:03:21;96850.16;;;15.35;51.43
9139;BME280;4604;48.616;9.548;2023-06-04T02:05:49;96847.53;;;15.19;52.88
9139;BME280;4604;48.616;9.548;2023-06-04T02:08:16;96852.72;;;15.12;53.42
9139;BME280;4604;48.616;9.548;2023-06-04T02:10:45;96847.72;;;15.09;53.16
9139;BME280;4604;48.616;9.548;2023-06-04T02:13:14;96844.44;;;14.99;53.53
9139;BME280;4604;48.616;9.548;2023-06-04T02:15:41;96849.44;;;14.86;54.52
9139;BME280;4604;48.616;9.548;2023-06-04T02:18:13;96849.94;;;14.81;55.09
9139;BME280;4604;48.616;9.548;2023-06-04T02:20:42;96852.63;;;14.73;55.14
9139;BME280;4604;48.616;9.548;2023-06-04T02:23:10;96861.59;;;14.64;54.83
9139;BME280;4604;48.616;9.548;2023-06-04T02:25:37;96863.72;;;14.60;54.24
9139;BME280;4604;48.616;9.548;2023-06-04T02:28:04;96856.09;;;14.57;54.96
9139;BME280;4604;48.616;9.548;2023-06-04T02:30:31;96861.38;;;14.49;56.14
9139;BME280;4604;48.616;9.548;2023-06-04T02:32:57;96859.22;;;14.44;56.76
9139;BME280;4604;48.616;9.548;2023-06-04T02:35:26;96851.91;;;14.38;57.29
9139;BME280;4604;48.616;9.548;2023-06-04T02:37:52;96856.06;;;14.24;57.09
9139;BME280;4604;48.616;9.548;2023-06-04T02:40:23;96848.72;;;14.10;57.36
9139;BME280;4604;48.616;9.548;2023-06-04T02:42:49;96857.34;;;14.04;57.72
9139;BME280;4604;48.616;9.548;2023-06-04T02:45:16;96849.38;;;14.04;57.37
9139;BME280;4604;48.616;9.548;2023-06-04T02:47:43;96853.50;;;13.98;58.09
9139;BME280;4604;48.616;9.548;2023-06-04T02:50:10;96852.84;;;13.88;58.71
9139;BME280;4604;48.616;9.548;2023-06-04T02:52:37;96850.81;;;13.82;58.45
9139;BME280;4604;48.616;9.548;2023-06-04T02:55:08;96855.63;;;13.95;56.28
9139;BME280;4604;48.616;9.548;2023-06-04T02:57:39;96854.19;;;14.00;56.07
9139;BME280;4604;48.616;9.548;2023-06-04T03:00:07;96863.66;;;14.03;57.37
9139;BME280;4604;48.616;9.548;2023-06-04T03:02:37;96865.94;;;13.98;57.71
9139;BME280;4604;48.616;9.548;2023-06-04T03:05:05;96861.63;;;13.88;58.08
9139;BME280;4604;48.616;9.548;2023-06-04T03:07:31;96868.22;;;13.84;58.53
9139;BME280;4604;48.616;9.548;2023-06-04T03:09:58;96869.56;;;13.80;59.07
9139;BME280;4604;48.616;9.548;2023-06-04T03:12:25;96875.50;;;13.74;59.83
9139;BME280;4604;48.616;9.548;2023-06-04T03:14:53;96862.75;;;13.78;59.49
9139;BME280;4604;48.616;9.548;2023-06-04T03:17:19;96870.28;;;13.56;59.76
9139;BME280;4604;48.616;9.548;2023-06-04T03:19:46;96874.84;;;13.46;60.00
9139;BME280;4604;48.616;9.548;2023-06-04T03:22:13;96874.84;;;13.46;59.75
9139;BME280;4604;48.616;9.548;2023-06-04T03:24:43;96876.66;;;13.37;60.47
9139;BME280;4604;48.616;9.548;2023-06-04T03:27:10;96877.06;;;13.24;61.16
9139;BME280;4604;48.616;9.548;2023-06-04T03:29:37;96884.16;;;13.24;61.32
9139;BME280;4604;48.616;9.548;2023-06-04T03:32:06;96885.25;;;13.13;61.92
9139;BME280;4604;48.616;9.548;2023-06-04T03:34:33;96888.28;;;13.18;61.91
9139;BME280;4604;48.616;9.548;2023-06-04T03:37:02;96881.31;;;13.17;61.75
9139;BME280;4604;48.616;9.548;2023-06-04T03:39:28;96891.56;;;13.12;61.57
9139;BME280;4604;48.616;9.548;2023-06-04T03:41:55;96886.88;;;13.06;62.01
9139;BME280;4604;48.616;9.548;2023-06-04T03:44:22;96894.13;;;13.04;62.45
9139;BME280;4604;48.616;9.548;2023-06-04T03:46:49;96891.66;;;13.02;63.01
9139;BME280;4604;48.616;9.548;2023-06-04T03:49:17;96888.47;;;12.99;63.37
9139;BME280;4604;48.616;9.548;2023-06-04T03:51:44;96889.47;;;12.98;63.49
9139;BME280;4604;48.616;9.548;2023-06-04T03:54:11;96888.47;;;12.99;64.08
9139;BME280;4604;48.616;9.548;2023-06-04T03:56:42;96889.56;;;12.88;64.14
9139;BME280;4604;48.616;9.548;2023-06-04T03:59:09;96895.00;;;12.87;65.10
9139;BME280;4604;48.616;9.548;2023-06-04T04:01:35;96900.47;;;12.85;64.94
9139;BME280;4604;48.616;9.548;2023-06-04T04:04:05;96905.84;;;12.93;64.73
9139;BME280;4604;48.616;9.548;2023-06-04T04:06:33;96904.63;;;12.88;64.51
9139;BME280;4604;48.616;9.548;2023-06-04T04:09:00;96901.72;;;12.99;64.16
9139;BME280;4604;48.616;9.548;2023-06-04T04:11:27;96911.28;;;12.92;64.42
9139;BME280;4604;48.616;9.548;2023-06-04T04:13:54;96906.78;;;12.92;64.12
9139;BME280;4604;48.616;9.548;2023-06-04T04:16:20;96907.69;;;13.01;62.10
9139;BME280;4604;48.616;9.548;2023-06-04T04:18:47;96905.06;;;13.01;62.14
9139;BME280;4604;48.616;9.548;2023-06-04T04:21:14;96904.97;;;13.11;62.12
9139;BME280;4604;48.616;9.548;2023-06-04T04:23:41;96905.53;;;13.22;62.90
9139;BME280;4604;48.616;9.548;2023-06-04T04:26:08;96907.50;;;13.20;64.12
9139;BME280;4604;48.616;9.548;2023-06-04T04:28:35;96909.84;;;13.23;64.56
9139;BME280;4604;48.616;9.548;2023-06-04T04:31:02;96898.41;;;13.23;64.88
9139;BME280;4604;48.616;9.548;2023-06-04T04:33:29;96913.41;;;13.32;65.67
9139;BME280;4604;48.616;9.548;2023-06-04T04:35:58;96917.56;;;13.35;65.96
9139;BME280;4604;48.616;9.548;2023-06-04T04:38:25;96914.44;;;13.39;65.89
9139;BME280;4604;48.616;9.548;2023-06-04T04:40:55;96917.13;;;13.47;65.05
9139;BME280;4604;48.616;9.548;2023-06-04T04:43:32;96913.81;;;13.45;64.98
9139;BME280;4604;48.616;9.548;2023-06-04T04:45:59;96918.81;;;13.48;64.89
9139;BME280;4604;48.616;9.548;2023-06-04T04:48:26;96911.69;;;13.49;65.67
9139;BME280;4604;48.616;9.548;2023-06-04T04:50:53;96922.19;;;13.59;66.77
9139;BME280;4604;48.616;9.548;2023-06-04T04:53:20;96922.41;;;13.74;66.38
9139;BME280;4604;48.616;9.548;2023-06-04T04:55:48;96925.63;;;13.85;66.24
9139;BME280;4604;48.616;9.548;2023-06-04T04:58:17;96920.31;;;13.94;66.82
9139;BME280;4604;48.616;9.548;2023-06-04T05:00:44;96906.25;;;13.93;66.83
9139;BME280;4604;48.616;9.548;2023-06-04T05:03:11;96922.22;;;14.09;67.28
9139;BME280;4604;48.616;9.548;2023-06-04T05:05:37;96923.06;;;14.18;65.96
9139;BME280;4604;48.616;9.548;2023-06-04T05:08:04;96926.09;;;14.31;65.08
9139;BME280;4604;48.616;9.548;2023-06-04T05:10:31;96934.63;;;14.60;64.15
9139;BME280;4604;48.616;9.548;2023-06-04T05:12:59;96934.47;;;14.69;63.68
9139;BME280;4604;48.616;9.548;2023-06-04T05:15:27;96936.13;;;14.79;62.24
9139;BME280;4604;48.616;9.548;2023-06-04T05:17:54;96939.31;;;14.90;59.40
9139;BME280;4604;48.616;9.548;2023-06-04T05:20:21;96941.78;;;15.08;59.52
9139;BME280;4604;48.616;9.548;2023-06-04T05:22:48;96941.59;;;15.26;59.13
9139;BME280;4604;48.616;9.548;2023-06-04T05:25:16;96940.06;;;15.40;59.20
9139;BME280;4604;48.616;9.548;2023-06-04T05:27:43;96948.03;;;15.56;58.80
9139;BME280;4604;48.616;9.548;2023-06-04T05:30:10;96952.81;;;15.69;58.06
9139;BME280;4604;48.616;9.548;2023-06-04T05:32:39;96949.47;;;15.83;57.06
9139;BME280;4604;48.616;9.548;2023-06-04T05:35:07;96943.44;;;15.90;56.83
9139;BME280;4604;48.616;9.548;2023-06-04T05:37:35;96958.09;;;15.94;56.28
9139;BME280;4604;48.616;9.548;2023-06-04T05:40:03;96962.53;;;16.10;55.58
9139;BME280;4604;48.616;9.548;2023-06-04T05:42:32;96964.28;;;16.25;54.10
9139;BME280;4604;48.616;9.548;2023-06-04T05:44:59;96962.22;;;16.36;53.42
9139;BME280;4604;48.616;9.548;2023-06-04T05:47:27;96960.81;;;16.48;53.38
9139;BME280;4604;48.616;9.548;2023-06-04T05:49:56;96961.09;;;16.61;55.03
9139;BME280;4604;48.616;9.548;2023-06-04T05:52:24;96961.13;;;16.84;53.87
9139;BME280;4604;48.616;9.548;2023-06-04T05:54:50;96960.94;;;16.86;53.34
9139;BME280;4604;48.616;9.548;2023-06-04T05:57:17;96969.16;;;16.99;54.39
9139;BME280;4604;48.616;9.548;2023-06-04T05:59:44;96956.94;;;16.90;54.83
9139;BME280;4604;48.616;9.548;2023-06-04T06:02:11;96966.69;;;16.98;54.70
9139;BME280;4604;48.616;9.548;2023-06-04T06:04:37;96968.75;;;17.10;54.09
9139;BME280;4604;48.616;9.548;2023-06-04T06:07:05;96968.50;;;17.20;52.75
9139;BME280;4604;48.616;9.548;2023-06-04T06:09:32;96949.75;;;17.28;51.16
9139;BME280;4604;48.616;9.548;2023-06-04T06:11:59;96974.00;;;17.42;50.29
9139;BME280;4604;48.616;9.548;2023-06-04T06:14:25;96967.75;;;17.49;49.60
9139;BME280;4604;48.616;9.548;2023-06-04T06:16:52;96968.97;;;17.62;49.54
9139;BME280;4604;48.616;9.548;2023-06-04T06:19:19;96970.72;;;17.69;49.60
9139;BME280;4604;48.616;9.548;2023-06-04T06:21:45;96972.41;;;17.85;50.60
9139;BME280;4604;48.616;9.548;2023-06-04T06:24:13;96973.91;;;17.88;50.35
9139;BME280;4604;48.616;9.548;2023-06-04T06:26:40;96975.63;;;17.95;49.46
9139;BME280;4604;48.616;9.548;2023-06-04T06:29:08;96974.88;;;18.02;49.89
9139;BME280;4604;48.616;9.548;2023-06-04T06:31:34;96975.81;;;18.09;50.60
9139;BME280;4604;48.616;9.548;2023-06-04T06:34:01;96975.06;;;18.15;51.71
9139;BME280;4604;48.616;9.548;2023-06-04T06:36:27;96978.09;;;18.27;51.14
9139;BME280;4604;48.616;9.548;2023-06-04T06:38:54;96977.38;;;18.18;51.44
9139;BME280;4604;48.616;9.548;2023-06-04T06:41:22;96973.06;;;18.17;51.32
9139;BME280;4604;48.616;9.548;2023-06-04T06:43:49;96986.97;;;18.12;51.31
9139;BME280;4604;48.616;9.548;2023-06-04T06:46:16;96986.47;;;18.09;51.64
9139;BME280;4604;48.616;9.548;2023-06-04T06:48:45;96987.75;;;18.28;52.00
9139;BME280;4604;48.616;9.548;2023-06-04T06:51:13;96993.47;;;18.39;51.20
9139;BME280;4604;48.616;9.548;2023-06-04T06:53:40;96987.66;;;18.51;50.84
9139;BME280;4604;48.616;9.548;2023-06-04T06:56:06;96986.50;;;18.60;50.20
9139;BME280;4604;48.616;9.548;2023-06-04T06:58:37;96998.09;;;18.67;49.31
9139;BME280;4604;48.616;9.548;2023-06-04T07:01:03;96985.09;;;18.79;48.73
9139;BME280;4604;48.616;9.548;2023-06-04T07:03:31;96981.41;;;18.80;47.83
9139;BME280;4604;48.616;9.548;2023-06-04T07:05:58;96991.28;;;19.01;48.43
9139;BME280;4604;48.616;9.548;2023-06-04T07:08:24;97000.94;;;19.17;48.10
9139;BME280;4604;48.616;9.548;2023-06-04T07:10:51;96992.44;;;19.35;47.80
9139;BME280;4604;48.616;9.548;2023-06-04T07:13:18;96992.34;;;19.50;47.83
9139;BME280;4604;48.616;9.548;2023-06-04T07:15:46;96992.13;;;19.73;45.89
9139;BME280;4604;48.616;9.548;2023-06-04T07:18:13;96997.59;;;19.86;45.13
9139;BME280;4604;48.616;9.548;2023-06-04T07:20:39;96993.63;;;19.82;46.58
9139;BME280;4604;48.616;9.548;2023-06-04T07:23:06;96992.41;;;19.84;46.11
9139;BME280;4604;48.616;9.548;2023-06-04T07:25:33;96996.78;;;19.92;45.60
9139;BME280;4604;48.616;9.548;2023-06-04T07:27:59;97003.25;;;20.04;45.52
9139;BME280;4604;48.616;9.548;2023-06-04T07:30:29;97001.88;;;20.15;45.36
9139;BME280;4604;48.616;9.548;2023-06-04T07:32:57;96993.28;;;20.26;44.21
9139;BME280;4604;48.616;9.548;2023-06-04T07:35:24;96996.25;;;20.45;44.74
9139;BME280;4604;48.616;9.548;2023-06-04T07:37:51;97001.19;;;20.48;43.95
9139;BME280;4604;48.616;9.548;2023-06-04T07:40:18;96993.75;;;20.37;44.13
9139;BME280;4604;48.616;9.548;2023-06-04T07:42:45;96994.38;;;20.04;45.42
9139;BME280;4604;48.616;9.548;2023-06-04T07:45:14;96994.28;;;20.25;44.38
9139;BME280;4604;48.616;9.548;2023-06-04T07:47:42;96995.16;;;20.33;45.19
9139;BME280;4604;48.616;9.548;2023-06-04T07:50:13;96973.78;;;20.52;45.16
9139;BME280;4604;48.616;9.548;2023-06-04T07:52:40;96990.56;;;20.61;44.85
9139;BME280;4604;48.616;9.548;2023-06-04T07:55:07;96992.03;;;20.77;44.72
9139;BME280;4604;48.616;9.548;2023-06-04T07:57:36;96990.69;;;21.21;43.92
9139;BME280;4604;48.616;9.548;2023-06-04T08:00:04;96989.22;;;21.05;44.73
9139;BME280;4604;48.616;9.548;2023-06-04T08:02:32;96984.72;;;21.32;44.26
9139;BME280;4604;48.616;9.548;2023-06-04T08:05:00;96978.09;;;21.28;44.74
9139;BME280;4604;48.616;9.548;2023-06-04T08:07:30;96976.88;;;21.57;44.13
9139;BME280;4604;48.616;9.548;2023-06-04T08:09:57;96982.66;;;21.68;44.52
9139;BME280;4604;48.616;9.548;2023-06-04T08:12:23;96985.97;;;21.83;43.31
9139;BME280;4604;48.616;9.548;2023-06-04T08:14:54;96970.84;;;21.89;42.28
9139;BME280;4604;48.616;9.548;2023-06-04T08:17:22;96979.13;;;21.87;42.59
9139;BME280;4604;48.616;9.548;2023-06-04T08:19:49;96980.16;;;21.86;42.70
9139;BME280;4604;48.616;9.548;2023-06-04T08:22:15;96982.47;;;21.76;42.65
9139;BME280;4604;48.616;9.548;2023-06-04T08:24:43;96979.78;;;21.76;42.58
9139;BME280;4604;48.616;9.548;2023-06-04T08:27:10;96980.59;;;21.76;42.98
9139;BME280;4604;48.616;9.548;2023-06-04T08:29:37;96984.53;;;21.74;43.16
9139;BME280;4604;48.616;9.548;2023-06-04T08:32:05;96979.34;;;21.92;43.25
9139;BME280;4604;48.616;9.548;2023-06-04T08:34:33;96992.34;;;22.02;42.70
9139;BME280;4604;48.616;9.548;2023-06-04T08:36:59;96976.81;;;22.11;41.25
9139;BME280;4604;48.616;9.548;2023-06-04T08:39:26;96983.44;;;22.08;43.46
9139;BME280;4604;48.616;9.548;2023-06-04T08:41:56;96984.44;;;22.27;42.58
9139;BME280;4604;48.616;9.548;2023-06-04T08:44:27;96981.50;;;22.35;41.45
9139;BME280;4604;48.616;9.548;2023-06-04T08:46:56;96977.63;;;22.11;42.82
9139;BME280;4604;48.616;9.548;2023-06-04T08:49:24;96982.78;;;22.19;41.85
9139;BME280;4604;48.616;9.548;2023-06-04T08:51:51;96990.84;;;22.19;41.62
9139;BME280;4604;48.616;9.548;2023-06-04T08:54:18;96983.41;;;22.15;41.28
9139;BME280;4604;48.616;9.548;2023-06-04T08:56:45;96987.53;;;22.17;41.72
9139;BME280;4604;48.616;9.548;2023-06-04T08:59:14;96979.28;;;22.26;41.53
9139;BME280;4604;48.616;9.548;2023-06-04T09:01:42;96991.06;;;22.31;41.36
9139;BME280;4604;48.616;9.548;2023-06-04T09:04:10;96987.53;;;22.31;40.52
9139;BME280;4604;48.616;9.548;2023-06-04T09:06:38;96983.75;;;22.38;40.38
9139;BME280;4604;48.616;9.548;2023-06-04T09:09:08;96993.50;;;22.33;41.65
9139;BME280;4604;48.616;9.548;2023-06-04T09:11:39;96978.69;;;22.69;40.86
9139;BME280;4604;48.616;9.548;2023-06-04T09:14:07;96982.19;;;22.69;38.93
9139;BME280;4604;48.616;9.548;2023-06-04T09:16:43;96990.06;;;22.71;39.96
9139;BME280;4604;48.616;9.548;2023-06-04T09:19:10;96982.81;;;22.71;39.11
9139;BME280;4604;48.616;9.548;2023-06-04T09:21:49;96989.00;;;22.72;40.92
9139;BME280;4604;48.616;9.548;2023-06-04T09:24:16;96987.31;;;22.77;40.14
9139;BME280;4604;48.616;9.548;2023-06-04T09:26:42;96994.06;;;22.93;39.74
9139;BME280;4604;48.616;9.548;2023-06-04T09:29:09;96988.09;;;22.98;38.71
9139;BME280;4604;48.616;9.548;2023-06-04T09:31:39;96983.69;;;22.97;39.00
9139;BME280;4604;48.616;9.548;2023-06-04T09:34:07;96990.94;;;22.96;38.77
9139;BME280;4604;48.616;9.548;2023-06-04T09:36:34;96988.22;;;23.10;37.85
9139;BME280;4604;48.616;9.548;2023-06-04T09:39:01;96989.91;;;22.97;37.36
9139;BME280;4604;48.616;9.548;2023-06-04T09:41:28;96988.22;;;23.10;38.38
9139;BME280;4604;48.616;9.548;2023-06-04T09:44:01;96978.59;;;23.20;38.58
9139;BME280;4604;48.616;9.548;2023-06-04T09:46:29;96990.25;;;23.14;38.88
9139;BME280;4604;48.616;9.548;2023-06-04T09:49:00;96984.25;;;23.44;37.69
9139;BME280;4604;48.616;9.548;2023-06-04T09:51:29;96975.63;;;23.28;37.60
9139;BME280;4604;48.616;9.548;2023-06-04T09:53:56;96978.06;;;23.37;37.17
9139;BME280;4604;48.616;9.548;2023-06-04T09:56:24;96977.84;;;23.38;37.46
9139;BME280;4604;48.616;9.548;2023-06-04T09:58:54;96981.09;;;23.47;37.22
9139;BME280;4604;48.616;9.548;2023-06-04T10:01:22;96986.47;;;23.47;36.85
9139;BME280;4604;48.616;9.548;2023-06-04T10:03:51;96976.47;;;23.54;37.18
9139;BME280;4604;48.616;9.548;2023-06-04T10:06:18;96980.72;;;23.68;36.91
9139;BME280;4604;48.616;9.548;2023-06-04T10:08:48;96979.50;;;23.64;37.11
9139;BME280;4604;48.616;9.548;2023-06-04T10:11:17;96984.72;;;23.84;36.03
9139;BME280;4604;48.616;9.548;2023-06-04T10:13:51;96982.53;;;24.00;36.39
9139;BME280;4604;48.616;9.548;2023-06-04T10:16:19;96978.31;;;24.04;35.58
9139;BME280;4604;48.616;9.548;2023-06-04T10:18:47;96984.38;;;23.99;36.10
9139;BME280;4604;48.616;9.548;2023-06-04T10:21:15;96979.44;;;23.96;35.23
9139;BME280;4604;48.616;9.548;2023-06-04T10:23:43;96979.06;;;23.92;36.00
9139;BME280;4604;48.616;9.548;2023-06-04T10:26:14;96979.06;;;24.11;35.37
9139;BME280;4604;48.616;9.548;2023-06-04T10:28:45;96977.03;;;23.88;35.12
9139;BME280;4604;48.616;9.548;2023-06-04T10:31:12;96968.09;;;23.62;35.63
9139;BME280;4604;48.616;9.548;2023-06-04T10:33:39;96977.47;;;23.85;36.19
9139;BME280;4604;48.616;9.548;2023-06-04T10:36:16;96964.47;;;24.00;35.84
9139;BME280;4604;48.616;9.548;2023-06-04T10:38:47;96969.31;;;24.28;35.54
9139;BME280;4604;48.616;9.548;2023-06-04T10:41:16;96972.47;;;24.44;34.58
9139;BME280;4604;48.616;9.548;2023-06-04T10:43:44;96974.13;;;24.63;35.00
9139;BME280;4604;48.616;9.548;2023-06-04T10:46:12;96974.81;;;24.59;34.04
9139;BME280;4604;48.616;9.548;2023-06-04T10:48:45;96972.34;;;24.39;34.17
9139;BME280;4604;48.616;9.548;2023-06-04T10:51:12;96977.50;;;24.22;33.82
9139;BME280;4604;48.616;9.548;2023-06-04T10:53:38;96971.59;;;24.31;34.00
9139;BME280;4604;48.616;9.548;2023-06-04T10:56:05;96974.59;;;24.42;35.11
9139;BME280;4604;48.616;9.548;2023-06-04T10:58:33;96972.34;;;24.39;35.00
9139;BME280;4604;48.616;9.548;2023-06-04T11:01:00;96968.19;;;24.36;34.87
9139;BME280;4604;48.616;9.548;2023-06-04T11:03:34;96973.31;;;24.44;34.00
9139;BME280;4604;48.616;9.548;2023-06-04T11:06:02;96971.44;;;24.26;33.88
9139;BME280;4604;48.616;9.548;2023-06-04T11:08:29;96976.38;;;24.29;35.36
9139;BME280;4604;48.616;9.548;2023-06-04T11:10:56;96979.41;;;24.58;34.68
9139;BME280;4604;48.616;9.548;2023-06-04T11:13:23;96980.34;;;24.45;33.04
9139;BME280;4604;48.616;9.548;2023-06-04T11:15:52;96968.28;;;24.66;33.85
9139;BME280;4604;48.616;9.548;2023-06-04T11:18:20;96973.91;;;24.65;32.78
9139;BME280;4604;48.616;9.548;2023-06-04T11:20:48;96966.19;;;24.31;32.85
9139;BME280;4604;48.616;9.548;2023-06-04T11:23:15;96975.56;;;24.66;34.04
9139;BME280;4604;48.616;9.548;2023-06-04T11:25:43;96976.06;;;25.05;33.77
9139;BME280;4604;48.616;9.548;2023-06-04T11:28:15;96980.31;;;25.12;32.07
9139;BME280;4604;48.616;9.548;2023-06-04T11:30:42;96969.41;;;24.89;33.15
9139;BME280;4604;48.616;9.548;2023-06-04T11:33:10;96972.97;;;25.01;32.43
9139;BME280;4604;48.616;9.548;2023-06-04T11:35:40;96972.50;;;25.04;31.86
9139;BME280;4604;48.616;9.548;2023-06-04T11:38:07;96977.78;;;24.99;32.39
9139;BME280;4604;48.616;9.548;2023-06-04T11:40:34;96976.31;;;25.15;32.50
9139;BME280;4604;48.616;9.548;2023-06-04T11:43:01;96965.34;;;25.40;33.52
9139;BME280;4604;48.616;9.548;2023-06-04T11:45:28;96969.63;;;25.71;32.58
9139;BME280;4604;48.616;9.548;2023-06-04T11:47:56;96970.91;;;25.80;31.41
9139;BME280;4604;48.616;9.548;2023-06-04T11:50:27;96971.19;;;25.91;32.04
9139;BME280;4604;48.616;9.548;2023-06-04T11:52:54;96974.31;;;25.76;31.95
9139;BME280;4604;48.616;9.548;2023-06-04T11:55:21;96966.78;;;25.54;32.63
9139;BME280;4604;48.616;9.548;2023-06-04T11:57:48;96966.16;;;25.17;32.57
9139;BME280;4604;48.616;9.548;2023-06-04T12:00:16;96976.84;;;24.93;33.53
9139;BME280;4604;48.616;9.548;2023-06-04T12:02:51;96966.06;;;24.75;32.77
9139;BME280;4604;48.616;9.548;2023-06-04T12:05:19;96958.47;;;24.35;33.01
9139;BME280;4604;48.616;9.548;2023-06-04T12:07:52;96966.25;;;24.43;33.55
9139;BME280;4604;48.616;9.548;2023-06-04T12:10:19;96954.88;;;24.41;34.29
9139;BME280;4604;48.616;9.548;2023-06-04T12:12:46;96961.69;;;24.92;33.88
9139;BME280;4604;48.616;9.548;2023-06-04T12:15:18;96953.25;;;25.19;32.64
9139;BME280;4604;48.616;9.548;2023-06-04T12:17:49;96956.63;;;25.26;33.53
9139;BME280;4604;48.616;9.548;2023-06-04T12:20:16;96962.31;;;25.60;33.17
9139;BME280;4604;48.616;9.548;2023-06-04T12:22:45;96956.31;;;25.81;32.32
9139;BME280;4604;48.616;9.548;2023-06-04T12:25:23;96954.13;;;25.90;31.88
9139;BME280;4604;48.616;9.548;2023-06-04T12:27:50;96950.69;;;25.71;31.48
9139;BME280;4604;48.616;9.548;2023-06-04T12:30:16;96954.44;;;25.47;31.07
9139;BME280;4604;48.616;9.548;2023-06-04T12:32:46;96954.47;;;25.58;31.93
9139;BME280;4604;48.616;9.548;2023-06-04T12:35:12;96941.38;;;25.55;32.50
9139;BME280;4604;48.616;9.548;2023-06-04T12:37:39;96956.31;;;25.58;31.93
9139;BME280;4604;48.616;9.548;2023-06-04T12:40:07;96958.19;;;25.34;32.63
9139;BME280;4604;48.616;9.548;2023-06-04T12:42:38;96952.88;;;25.27;31.81
9139;BME280;4604;48.616;9.548;2023-06-04T12:45:06;96953.44;;;25.17;32.13
9139;BME280;4604;48.616;9.548;2023-06-04T12:47:33;96954.13;;;25.13;31.41
9139;BME280;4604;48.616;9.548;2023-06-04T12:49:59;96949.69;;;25.18;31.32
9139;BME280;4604;48.616;9.548;2023-06-04T12:52:26;96946.69;;;25.08;30.34
9139;BME280;4604;48.616;9.548;2023-06-04T12:54:53;96944.78;;;25.27;30.72
9139;BME280;4604;48.616;9.548;2023-06-04T12:57:20;96940.13;;;25.46;30.72
9139;BME280;4604;48.616;9.548;2023-06-04T12:59:48;96937.16;;;25.59;30.39
9139;BME280;4604;48.616;9.548;2023-06-04T13:02:14;96932.13;;;25.63;31.10
9139;BME280;4604;48.616;9.548;2023-06-04T13:04:41;96937.66;;;25.68;29.76
9139;BME280;4604;48.616;9.548;2023-06-04T13:07:09;96942.91;;;25.75;29.85
9139;BME280;4604;48.616;9.548;2023-06-04T13:09:36;96931.41;;;25.79;29.89
9139;BME280;4604;48.616;9.548;2023-06-04T13:12:03;96951.44;;;25.90;30.35
9139;BME280;4604;48.616;9.548;2023-06-04T13:14:30;96938.91;;;25.77;29.94
9139;BME280;4604;48.616;9.548;2023-06-04T13:17:00;96952.34;;;25.84;28.30
9139;BME280;4604;48.616;9.548;2023-06-04T13:19:27;96943.03;;;25.80;29.28
9139;BME280;4604;48.616;9.548;2023-06-04T13:21:53;96937.06;;;25.78;28.25
9139;BME280;4604;48.616;9.548;2023-06-04T13:24:20;96944.94;;;25.91;30.07